createdAt,value
2023-03-21T00:00:24.467Z,53.70
2023-03-21T00:01:35.090Z,51.62
2023-03-21T00:03:53.515Z,50.20
2023-03-21T00:06:19.449Z,49.73
2023-03-21T00:07:28.459Z,54.48
2023-03-21T00:09:57.022Z,48.90
2023-03-21T00:12:24.405Z,52.87
2023-03-21T00:13:34.646Z,53.62
2023-03-21T00:14:45.223Z,51.22
2023-03-21T00:16:05.965Z,58.05
2023-03-21T00:17:06.008Z,50.42
2023-03-21T00:18:16.294Z,55.43
2023-03-21T00:19:25.948Z,56.37
2023-03-21T00:20:37.582Z,52.18
2023-03-21T00:22:03.594Z,52.65
2023-03-21T00:24:13.685Z,52.53
2023-03-21T00:25:22.238Z,52.37
2023-03-21T00:26:32.242Z,53.28
2023-03-21T00:28:01.117Z,57.37
2023-03-21T00:28:51.833Z,54.36
2023-03-21T00:30:05.187Z,59.78
2023-03-21T00:31:15.692Z,60.12
2023-03-21T00:32:26.620Z,56.00
2023-03-21T00:34:59.669Z,54.50
2023-03-21T00:36:05.148Z,56.95
2023-03-21T00:37:12.525Z,59.00
2023-03-21T00:38:25.455Z,54.95
2023-03-21T00:39:35.734Z,50.60
2023-03-21T00:40:49.220Z,53.20
2023-03-21T00:43:16.887Z,53.75
2023-03-21T00:44:26.572Z,56.87
2023-03-21T00:45:37.846Z,53.58
2023-03-21T00:47:00.793Z,52.82
2023-03-21T00:49:14.652Z,52.97
2023-03-21T00:50:26.110Z,56.70
2023-03-21T00:51:37.369Z,58.25
2023-03-21T00:53:58.121Z,59.30
2023-03-21T00:55:13.408Z,60.87
2023-03-21T00:56:22.379Z,64.35
2023-03-21T00:57:39.368Z,59.57
2023-03-21T00:58:47.227Z,65.33
2023-03-21T00:59:58.607Z,63.52
2023-03-21T01:01:08.903Z,68.83
2023-03-21T01:02:20.805Z,69.25
2023-03-21T01:03:31.415Z,68.28
2023-03-21T01:06:06.345Z,69.28
2023-03-21T01:07:15.997Z,70.85
2023-03-21T01:09:41.487Z,71.45
2023-03-21T01:10:53.062Z,74.05
2023-03-21T01:12:03.328Z,71.50
2023-03-21T01:13:15.188Z,73.83
2023-03-21T01:14:24.344Z,73.73
2023-03-21T01:15:38.927Z,72.77
2023-03-21T01:16:50.595Z,70.92
2023-03-21T01:18:00.157Z,71.37
2023-03-21T01:20:29.065Z,67.92
2023-03-21T01:21:38.159Z,69.20
2023-03-21T01:22:47.706Z,61.07
2023-03-21T01:23:56.588Z,58.42
2023-03-21T01:25:21.437Z,57.15
2023-03-21T01:26:17.458Z,55.32
2023-03-21T01:27:27.559Z,49.63
2023-03-21T01:28:39.049Z,49.07
2023-03-21T01:29:49.155Z,51.28
2023-03-21T01:31:01.777Z,50.65
2023-03-21T01:32:11.944Z,52.50
2023-03-21T01:33:23.218Z,51.80
2023-03-21T01:34:32.642Z,51.28
2023-03-21T01:35:50.412Z,48.03
2023-03-21T01:36:54.776Z,49.20
2023-03-21T01:39:19.591Z,50.00
2023-03-21T01:40:32.773Z,48.23
2023-03-21T01:41:45.947Z,50.13
2023-03-21T01:42:56.774Z,51.75
2023-03-21T01:45:58.547Z,57.78
2023-03-21T01:47:12.246Z,53.73
2023-03-21T01:49:46.832Z,49.93
2023-03-21T01:51:00.078Z,49.88
2023-03-21T01:52:36.488Z,49.85
2023-03-21T01:53:40.057Z,50.52
2023-03-21T01:54:52.615Z,55.37
2023-03-21T01:57:40.473Z,55.06
2023-03-21T01:58:44.784Z,49.12
2023-03-21T02:00:09.213Z,50.45
2023-03-21T02:01:23.020Z,51.18
2023-03-21T02:02:36.011Z,51.07
2023-03-21T02:05:08.034Z,47.10
2023-03-21T02:07:48.203Z,49.70
2023-03-21T02:09:02.369Z,49.70
2023-03-21T02:11:30.008Z,49.57
2023-03-21T02:12:39.148Z,51.80
2023-03-21T02:13:55.810Z,48.07
2023-03-21T02:15:03.382Z,51.13
2023-03-21T02:18:26.224Z,49.05
2023-03-21T02:24:15.981Z,50.80
2023-03-21T02:25:58.331Z,49.10
2023-03-21T02:27:22.277Z,48.90
2023-03-21T02:28:43.851Z,50.77
2023-03-21T02:30:31.901Z,49.90
2023-03-21T02:31:49.909Z,47.90
2023-03-21T02:33:24.205Z,55.18
2023-03-21T02:35:00.614Z,49.00
2023-03-21T02:38:00.896Z,47.52
2023-03-21T02:39:37.603Z,48.15
2023-03-21T02:41:13.213Z,49.33
2023-03-21T02:43:43.371Z,49.82
2023-03-21T02:44:59.679Z,45.02
2023-03-21T02:49:03.127Z,54.12
2023-03-21T02:50:34.215Z,46.60
2023-03-21T02:51:47.546Z,50.75
2023-03-21T02:52:58.748Z,49.93
2023-03-21T02:54:45.240Z,55.33
2023-03-21T02:55:27.522Z,55.15
2023-03-21T02:56:40.800Z,59.27
2023-03-21T02:57:54.115Z,57.55
2023-03-21T02:59:06.116Z,59.10
2023-03-21T03:00:23.142Z,54.33
2023-03-21T03:01:33.671Z,58.90
2023-03-21T03:03:59.758Z,60.40
2023-03-21T03:09:58.151Z,58.10
2023-03-21T03:11:24.019Z,65.23
2023-03-21T03:14:41.936Z,51.93
2023-03-21T03:17:28.637Z,57.18
2023-03-21T03:19:01.609Z,66.02
2023-03-21T03:23:12.704Z,57.15
2023-03-21T03:25:56.518Z,56.15
2023-03-21T03:27:19.611Z,53.97
2023-03-21T03:28:33.958Z,54.23
2023-03-21T03:29:46.307Z,54.75
2023-03-21T03:31:09.970Z,54.35
2023-03-21T03:33:37.423Z,52.65
2023-03-21T03:34:50.015Z,51.67
2023-03-21T03:37:21.647Z,51.70
2023-03-21T03:40:00.967Z,48.83
2023-03-21T03:44:03.168Z,50.53
2023-03-21T03:45:14.056Z,53.30
2023-03-21T03:48:06.653Z,52.23
2023-03-21T03:49:23.919Z,51.92
2023-03-21T03:51:59.101Z,54.87
2023-03-21T03:53:22.579Z,52.12
2023-03-21T03:54:40.985Z,51.80
2023-03-21T03:55:53.016Z,53.80
2023-03-21T03:58:24.250Z,51.40
2023-03-21T03:59:38.862Z,52.95
2023-03-21T04:00:50.677Z,49.20
2023-03-21T04:02:00.379Z,51.22
2023-03-21T04:03:10.620Z,49.53
2023-03-21T04:05:37.481Z,51.38
2023-03-21T04:06:49.138Z,56.55
2023-03-21T04:08:00.647Z,49.72
2023-03-21T04:10:34.847Z,53.35
2023-03-21T04:11:45.080Z,55.52
2023-03-21T04:12:54.404Z,52.95
2023-03-21T04:14:05.242Z,52.85
2023-03-21T04:16:35.785Z,53.95
2023-03-21T04:17:46.822Z,54.97
2023-03-21T04:18:56.383Z,54.53
2023-03-21T04:20:12.097Z,50.97
2023-03-21T04:22:35.333Z,54.85
2023-03-21T04:23:44.202Z,58.37
2023-03-21T04:24:53.423Z,58.95
2023-03-21T04:26:04.439Z,56.48
2023-03-21T04:27:15.062Z,55.65
2023-03-21T04:28:27.682Z,58.32
2023-03-21T04:29:42.623Z,54.93
2023-03-21T04:31:02.339Z,54.65
2023-03-21T04:32:08.083Z,53.63
2023-03-21T04:33:17.889Z,121.58
2023-03-21T04:34:29.582Z,97.25
2023-03-21T04:35:43.130Z,63.48
2023-03-21T04:36:54.449Z,51.92
2023-03-21T04:38:03.163Z,55.25
2023-03-21T04:39:13.263Z,54.73
2023-03-21T04:40:25.060Z,53.05
2023-03-21T04:42:45.631Z,51.02
2023-03-21T04:43:56.999Z,51.50
2023-03-21T04:45:07.477Z,51.97
2023-03-21T04:47:34.459Z,53.95
2023-03-21T04:51:08.861Z,48.90
2023-03-21T04:52:17.751Z,47.60
2023-03-21T04:53:27.421Z,48.77
2023-03-21T04:54:37.035Z,46.17
2023-03-21T04:55:45.829Z,48.62
2023-03-21T04:56:55.718Z,53.42
2023-03-21T04:58:08.195Z,52.15
2023-03-21T05:00:35.445Z,48.05
2023-03-21T05:03:00.519Z,52.12
2023-03-21T05:04:11.179Z,48.35
2023-03-21T05:05:21.552Z,46.08
2023-03-21T05:06:31.980Z,44.67
2023-03-21T05:07:42.176Z,44.45
2023-03-21T05:08:51.995Z,43.95
2023-03-21T05:10:02.465Z,45.10
2023-03-21T05:11:13.094Z,45.08
2023-03-21T05:12:21.856Z,92.67
2023-03-21T05:13:31.069Z,57.40
2023-03-21T05:14:41.061Z,62.40
2023-03-21T05:15:50.467Z,75.85
2023-03-21T05:17:02.533Z,55.23
2023-03-21T05:18:11.244Z,46.00
2023-03-21T05:19:25.714Z,45.35
2023-03-21T05:20:35.349Z,43.23
2023-03-21T05:21:46.022Z,41.90
2023-03-21T05:22:58.115Z,43.00
2023-03-21T05:24:13.815Z,41.65
2023-03-21T05:25:24.418Z,41.60
2023-03-21T05:26:52.768Z,40.45
2023-03-21T05:28:06.562Z,42.03
2023-03-21T05:30:35.517Z,37.67
2023-03-21T05:31:46.015Z,37.60
2023-03-21T05:32:57.571Z,38.13
2023-03-21T05:34:08.413Z,39.70
2023-03-21T05:35:17.875Z,40.87
2023-03-21T05:37:42.356Z,38.75
2023-03-21T05:38:51.421Z,39.87
2023-03-21T05:40:02.126Z,37.85
2023-03-21T05:42:29.028Z,38.18
2023-03-21T05:43:40.122Z,36.80
2023-03-21T05:44:49.515Z,38.25
2023-03-21T05:45:59.742Z,38.20
2023-03-21T05:47:10.667Z,42.45
2023-03-21T05:48:25.320Z,128.58
2023-03-21T05:49:39.232Z,45.80
2023-03-21T05:50:48.682Z,37.15
2023-03-21T05:53:19.183Z,39.45
2023-03-21T05:54:28.130Z,41.67
2023-03-21T05:55:38.406Z,40.22
2023-03-21T05:56:50.260Z,38.15
2023-03-21T05:58:00.914Z,39.22
2023-03-21T06:00:24.515Z,44.78
2023-03-21T06:02:50.623Z,38.22
2023-03-21T06:04:13.520Z,40.70
2023-03-21T06:05:28.178Z,42.08
2023-03-21T06:06:37.023Z,45.18
2023-03-21T06:09:01.509Z,49.60
2023-03-21T06:10:12.271Z,45.17
2023-03-21T06:12:34.949Z,45.35
2023-03-21T06:13:48.836Z,48.93
2023-03-21T06:14:58.018Z,51.43
2023-03-21T06:16:15.807Z,50.28
2023-03-21T06:17:25.231Z,49.10
2023-03-21T06:18:36.663Z,50.78
2023-03-21T06:19:47.833Z,50.83
2023-03-21T06:20:58.905Z,53.35
2023-03-21T06:23:23.206Z,52.05
2023-03-21T06:24:32.435Z,52.23
2023-03-21T06:25:43.629Z,51.75
2023-03-21T06:26:52.662Z,51.35
2023-03-21T06:28:01.994Z,52.83
2023-03-21T06:29:10.938Z,51.05
2023-03-21T06:30:21.097Z,51.62
2023-03-21T06:32:55.403Z,50.13
2023-03-21T06:34:04.571Z,49.78
2023-03-21T06:36:29.085Z,50.45
2023-03-21T06:37:38.355Z,51.88
2023-03-21T06:38:49.093Z,52.23
2023-03-21T06:39:58.920Z,50.97
2023-03-21T06:41:08.867Z,51.37
2023-03-21T06:42:20.657Z,50.80
2023-03-21T06:44:45.744Z,51.95
2023-03-21T06:45:56.484Z,50.62
2023-03-21T06:47:05.672Z,50.03
2023-03-21T06:48:14.984Z,52.27
2023-03-21T06:49:28.590Z,55.13
2023-03-21T06:51:54.047Z,52.77
2023-03-21T06:53:04.175Z,53.33
2023-03-21T06:54:17.015Z,52.92
2023-03-21T06:55:28.584Z,50.32
2023-03-21T06:56:38.839Z,52.36
2023-03-21T06:57:50.486Z,48.97
2023-03-21T06:59:01.548Z,52.57
2023-03-21T07:00:23.396Z,51.35
2023-03-21T07:01:32.850Z,51.63
2023-03-21T07:02:43.536Z,55.82
2023-03-21T07:03:56.716Z,50.88
2023-03-21T07:05:07.744Z,53.45
2023-03-21T07:06:16.761Z,52.02
2023-03-21T07:07:27.175Z,54.12
2023-03-21T07:08:36.608Z,52.45
2023-03-21T07:09:46.026Z,49.27
2023-03-21T07:10:57.364Z,48.07
2023-03-21T07:12:07.091Z,43.98
2023-03-21T07:13:17.423Z,42.20
2023-03-21T07:14:32.556Z,41.92
2023-03-21T07:15:42.144Z,39.97
2023-03-21T07:16:51.020Z,38.15
2023-03-21T07:18:00.629Z,38.20
2023-03-21T07:19:10.371Z,37.35
2023-03-21T07:21:35.168Z,38.88
2023-03-21T07:22:46.390Z,40.70
2023-03-21T07:23:56.313Z,40.60
2023-03-21T07:25:07.224Z,37.65
2023-03-21T07:26:21.848Z,37.25
2023-03-21T07:27:30.920Z,36.65
2023-03-21T07:28:39.752Z,37.13
2023-03-21T07:29:50.924Z,37.27
2023-03-21T07:31:06.456Z,39.60
2023-03-21T07:32:16.649Z,40.07
2023-03-21T07:33:26.507Z,39.95
2023-03-21T07:34:37.516Z,39.15
2023-03-21T07:35:47.090Z,38.55
2023-03-21T07:36:57.086Z,39.90
2023-03-21T07:39:23.133Z,40.68
2023-03-21T07:41:48.678Z,43.45
2023-03-21T07:43:08.283Z,38.67
2023-03-21T07:45:34.944Z,41.85
2023-03-21T07:46:45.498Z,40.65
2023-03-21T07:47:54.512Z,41.27
2023-03-21T07:49:04.266Z,43.62
2023-03-21T07:50:14.868Z,39.73
2023-03-21T07:51:23.372Z,40.95
2023-03-21T07:52:32.478Z,41.33
2023-03-21T07:53:43.721Z,38.10
2023-03-21T07:54:53.662Z,41.40
2023-03-21T07:56:04.413Z,38.38
2023-03-21T07:57:13.887Z,38.85
2023-03-21T07:58:27.825Z,36.00
2023-03-21T07:59:38.002Z,41.12
2023-03-21T08:00:48.079Z,37.40
2023-03-21T08:01:57.810Z,38.42
2023-03-21T08:03:06.790Z,38.92
2023-03-21T08:04:15.901Z,39.55
2023-03-21T08:05:28.839Z,38.65
2023-03-21T08:06:38.071Z,39.98
2023-03-21T08:07:46.889Z,41.35
2023-03-21T08:08:55.452Z,37.50
2023-03-21T08:10:05.248Z,39.87
2023-03-21T08:11:16.447Z,36.70
2023-03-21T08:12:26.224Z,41.27
2023-03-21T08:13:34.770Z,40.60
2023-03-21T08:14:44.466Z,40.47
2023-03-21T08:15:54.051Z,42.63
2023-03-21T08:17:05.372Z,35.48
2023-03-21T08:18:14.686Z,41.20
2023-03-21T08:19:24.371Z,39.20
2023-03-21T08:20:33.940Z,36.78
2023-03-21T08:21:42.916Z,39.73
2023-03-21T08:22:52.489Z,32.85
2023-03-21T08:25:21.533Z,34.18
2023-03-21T08:26:32.433Z,41.73
2023-03-21T08:27:41.926Z,36.92
2023-03-21T08:28:50.677Z,36.73
2023-03-21T08:29:59.937Z,34.42
2023-03-21T08:31:10.390Z,38.17
2023-03-21T08:32:19.745Z,38.85
2023-03-21T08:33:29.024Z,36.77
2023-03-21T08:34:38.027Z,36.13
2023-03-21T08:35:47.035Z,34.22
2023-03-21T08:36:56.498Z,36.45
2023-03-21T08:39:24.355Z,37.60
2023-03-21T08:41:49.195Z,32.94
2023-03-21T08:43:00.142Z,35.15
2023-03-21T08:47:45.086Z,33.02
2023-03-21T08:50:15.904Z,32.50
2023-03-21T08:52:41.021Z,34.58
2023-03-21T08:55:08.615Z,33.28
2023-03-21T08:56:18.874Z,35.00
2023-03-21T08:57:28.848Z,36.85
2023-03-21T08:58:39.022Z,34.12
2023-03-21T08:59:47.673Z,34.70
2023-03-21T09:00:56.679Z,33.72
2023-03-21T09:02:06.741Z,32.35
2023-03-21T09:03:15.999Z,37.70
2023-03-21T09:04:26.947Z,37.10
2023-03-21T09:06:48.636Z,33.80
2023-03-21T09:07:57.586Z,33.60
2023-03-21T09:10:24.576Z,38.18
2023-03-21T09:11:34.440Z,30.67
2023-03-21T09:12:43.556Z,31.50
2023-03-21T09:13:53.160Z,38.77
2023-03-21T09:15:05.294Z,33.52
2023-03-21T09:16:14.761Z,33.93
2023-03-21T09:17:23.314Z,34.73
2023-03-21T09:18:49.389Z,34.53
2023-03-21T09:20:01.053Z,33.73
2023-03-21T09:22:27.554Z,32.10
2023-03-21T09:23:37.221Z,32.20
2023-03-21T09:24:48.166Z,32.27
2023-03-21T09:25:57.199Z,32.07
2023-03-21T09:27:08.745Z,32.75
2023-03-21T09:28:18.127Z,32.35
2023-03-21T09:29:27.055Z,37.83
2023-03-21T09:30:37.247Z,30.77
2023-03-21T09:31:47.719Z,32.85
2023-03-21T09:32:57.348Z,30.93
2023-03-21T09:34:07.274Z,33.77
2023-03-21T09:35:19.820Z,33.58
2023-03-21T09:36:31.559Z,32.22
2023-03-21T09:38:57.444Z,32.45
2023-03-21T09:41:41.740Z,35.33
2023-03-21T09:43:07.835Z,33.55
2023-03-21T09:44:37.147Z,36.93
2023-03-21T09:45:50.879Z,33.67
2023-03-21T09:47:14.641Z,32.03
2023-03-21T09:50:14.858Z,32.68
2023-03-21T09:52:45.385Z,30.70
2023-03-21T09:53:57.338Z,30.40
2023-03-21T09:56:26.533Z,27.40
2023-03-21T09:57:42.633Z,27.50
2023-03-21T10:00:16.275Z,31.52
2023-03-21T10:01:29.315Z,27.78
2023-03-21T10:02:47.324Z,28.45
2023-03-21T10:03:59.331Z,29.12
2023-03-21T10:06:37.812Z,30.90
2023-03-21T10:07:54.473Z,30.50
2023-03-21T10:10:32.353Z,30.80
2023-03-21T10:12:04.850Z,29.07
2023-03-21T10:13:16.663Z,34.57
2023-03-21T10:14:32.371Z,26.95
2023-03-21T10:15:41.953Z,27.53
2023-03-21T10:18:24.733Z,26.87
2023-03-21T10:19:33.661Z,25.80
2023-03-21T10:20:43.731Z,23.25
2023-03-21T10:22:02.116Z,23.65
2023-03-21T10:23:07.708Z,20.90
2023-03-21T10:24:21.901Z,21.10
2023-03-21T10:25:38.549Z,18.15
2023-03-21T10:26:49.319Z,28.43
2023-03-21T10:27:59.801Z,25.25
2023-03-21T10:31:42.391Z,25.00
2023-03-21T10:32:52.361Z,21.82
2023-03-21T10:34:04.840Z,21.52
2023-03-21T10:35:14.301Z,22.80
2023-03-21T10:36:26.838Z,25.23
2023-03-21T10:37:36.879Z,21.52
2023-03-21T10:38:52.932Z,21.57
2023-03-21T10:40:03.163Z,21.95
2023-03-21T10:41:12.682Z,21.85
2023-03-21T10:42:28.883Z,24.37
2023-03-21T10:43:40.611Z,22.92
2023-03-21T10:46:23.680Z,23.42
2023-03-21T10:48:53.512Z,23.10
2023-03-21T10:51:34.949Z,24.67
2023-03-21T10:52:50.659Z,23.70
2023-03-21T10:54:03.480Z,24.20
2023-03-21T10:55:22.480Z,20.80
2023-03-21T10:56:42.935Z,23.15
2023-03-21T10:59:22.370Z,26.05
2023-03-21T11:01:54.982Z,23.70
2023-03-21T11:03:06.783Z,24.40
2023-03-21T11:04:19.413Z,22.08
2023-03-21T11:05:38.569Z,22.17
2023-03-21T11:06:56.412Z,25.37
2023-03-21T11:08:15.416Z,24.72
2023-03-21T11:09:27.469Z,25.60
2023-03-21T11:10:40.832Z,25.77
2023-03-21T11:11:55.237Z,26.75
2023-03-21T11:13:08.404Z,25.10
2023-03-21T11:14:38.492Z,24.20
2023-03-21T11:15:59.744Z,24.47
2023-03-21T11:17:24.516Z,25.05
2023-03-21T11:18:35.033Z,25.98
2023-03-21T11:21:14.891Z,24.18
2023-03-21T11:22:40.358Z,25.48
2023-03-21T11:23:52.180Z,26.65
2023-03-21T11:25:03.285Z,24.30
2023-03-21T11:27:35.932Z,24.73
2023-03-21T11:28:46.932Z,28.95
2023-03-21T11:29:59.667Z,24.87
2023-03-21T11:31:09.769Z,26.67
2023-03-21T11:32:38.295Z,26.45
2023-03-21T11:33:59.984Z,27.12
2023-03-21T11:35:15.615Z,28.55
2023-03-21T11:36:28.958Z,25.58
2023-03-21T11:37:47.326Z,25.45
2023-03-21T11:40:25.099Z,24.82
2023-03-21T11:41:35.083Z,24.40
2023-03-21T11:42:50.187Z,24.20
2023-03-21T11:44:01.698Z,24.17
2023-03-21T11:46:32.082Z,24.47
2023-03-21T11:47:40.888Z,24.98
2023-03-21T11:48:50.306Z,22.65
2023-03-21T11:50:04.889Z,22.88
2023-03-21T11:52:45.288Z,23.50
2023-03-21T11:54:13.407Z,24.45
2023-03-21T11:57:34.216Z,22.52
2023-03-21T11:58:49.338Z,23.72
2023-03-21T12:00:06.209Z,24.78
2023-03-21T12:01:28.892Z,24.58
2023-03-21T12:04:32.547Z,22.48
2023-03-21T12:05:45.302Z,23.13
2023-03-21T12:08:25.172Z,24.88
2023-03-21T12:09:38.480Z,25.35
2023-03-21T12:11:25.550Z,24.07
2023-03-21T12:12:54.203Z,22.45
2023-03-21T12:14:19.151Z,23.97
2023-03-21T12:15:37.469Z,22.12
2023-03-21T12:18:42.674Z,22.10
2023-03-21T12:21:46.836Z,21.55
2023-03-21T12:23:22.594Z,22.25
2023-03-21T12:24:41.520Z,21.42
2023-03-21T12:27:21.771Z,26.17
2023-03-21T12:28:43.704Z,23.45
2023-03-21T12:30:10.919Z,25.30
2023-03-21T12:31:29.298Z,22.32
2023-03-21T12:34:51.979Z,23.85
2023-03-21T12:36:06.263Z,23.18
2023-03-21T12:37:36.976Z,22.77
2023-03-21T12:41:26.947Z,22.95
2023-03-21T12:42:48.355Z,22.63
2023-03-21T12:44:07.094Z,22.93
2023-03-21T12:45:37.396Z,24.03
2023-03-21T12:46:51.793Z,24.20
2023-03-21T12:49:36.141Z,24.72
2023-03-21T12:50:49.957Z,24.00
2023-03-21T12:53:37.390Z,23.82
2023-03-21T12:54:52.392Z,23.43
2023-03-21T12:56:05.265Z,25.70
2023-03-21T12:57:30.571Z,21.42
2023-03-21T12:58:55.080Z,23.82
2023-03-21T13:02:50.593Z,23.95
2023-03-21T13:04:11.853Z,25.35
2023-03-21T13:05:40.340Z,23.80
2023-03-21T13:08:13.541Z,22.42
2023-03-21T13:09:38.587Z,20.43
2023-03-21T13:10:48.427Z,20.45
2023-03-21T13:12:01.889Z,20.40
2023-03-21T13:13:32.512Z,21.83
2023-03-21T13:16:35.206Z,24.88
2023-03-21T13:17:47.952Z,26.47
2023-03-21T13:19:34.961Z,21.25
2023-03-21T13:23:40.979Z,25.27
2023-03-21T13:24:53.026Z,24.95
2023-03-21T13:26:02.615Z,23.18
2023-03-21T13:27:20.747Z,22.10
2023-03-21T13:28:34.638Z,22.10
2023-03-21T13:31:29.365Z,22.03
2023-03-21T13:34:00.283Z,23.88
2023-03-21T13:35:15.543Z,24.98
2023-03-21T13:36:27.748Z,23.92
2023-03-21T13:37:40.642Z,22.18
2023-03-21T13:38:52.692Z,22.32
2023-03-21T13:40:12.334Z,21.60
2023-03-21T13:42:57.381Z,22.27
2023-03-21T13:44:10.401Z,24.80
2023-03-21T13:45:34.185Z,21.98
2023-03-21T13:46:53.867Z,22.38
2023-03-21T13:48:06.094Z,22.10
2023-03-21T13:50:54.726Z,23.07
2023-03-21T13:52:12.992Z,22.45
2023-03-21T13:53:26.614Z,22.48
2023-03-21T13:54:45.314Z,22.42
2023-03-21T13:57:40.267Z,24.33
2023-03-21T13:58:51.913Z,25.02
2023-03-21T14:00:25.068Z,25.25
2023-03-21T14:01:40.759Z,23.87
2023-03-21T14:04:36.812Z,72.60
2023-03-21T14:06:59.020Z,70.28
2023-03-21T14:10:54.401Z,24.92
2023-03-21T14:13:19.294Z,25.28
2023-03-21T14:17:37.586Z,23.48
2023-03-21T14:18:54.956Z,24.07
2023-03-21T14:21:25.290Z,23.32
2023-03-21T14:22:35.255Z,23.67
2023-03-21T14:25:02.400Z,50.02
2023-03-21T14:26:13.380Z,35.15
2023-03-21T14:28:37.130Z,31.12
2023-03-21T14:29:46.574Z,26.38
2023-03-21T14:30:59.816Z,30.53
2023-03-21T14:33:41.177Z,23.73
2023-03-21T14:34:49.951Z,21.95
2023-03-21T14:36:07.027Z,22.65
2023-03-21T14:38:57.880Z,22.38
2023-03-21T14:41:30.430Z,22.02
2023-03-21T14:42:39.382Z,21.80
2023-03-21T14:44:28.234Z,22.42
2023-03-21T14:45:38.107Z,21.67
2023-03-21T14:46:48.004Z,22.40
2023-03-21T14:48:03.252Z,22.40
2023-03-21T14:51:08.755Z,23.30
2023-03-21T14:52:34.326Z,29.85
2023-03-21T14:53:45.325Z,28.37
2023-03-21T14:54:55.379Z,26.45
2023-03-21T14:56:24.990Z,25.00
2023-03-21T14:57:34.787Z,28.85
2023-03-21T14:58:46.877Z,26.80
2023-03-21T15:00:00.077Z,28.67
2023-03-21T15:01:16.012Z,22.32
2023-03-21T15:02:32.031Z,25.30
2023-03-21T15:03:47.124Z,24.12
2023-03-21T15:04:59.295Z,25.68
2023-03-21T15:06:12.512Z,24.33
2023-03-21T15:07:32.913Z,23.52
2023-03-21T15:11:11.037Z,25.35
2023-03-21T15:12:19.548Z,23.87
2023-03-21T15:13:32.838Z,25.27
2023-03-21T15:14:42.598Z,26.83
2023-03-21T15:15:53.230Z,23.78
2023-03-21T15:19:42.284Z,27.75
2023-03-21T15:20:52.506Z,27.73
2023-03-21T15:23:33.315Z,24.52
2023-03-21T15:24:45.635Z,25.35
2023-03-21T15:27:17.311Z,24.38
2023-03-21T15:28:26.793Z,26.22
2023-03-21T15:29:36.937Z,23.68
2023-03-21T15:30:52.375Z,24.80
2023-03-21T15:33:26.587Z,30.75
2023-03-21T15:34:36.745Z,26.87
2023-03-21T15:35:55.131Z,26.25
2023-03-21T15:37:07.796Z,24.03
2023-03-21T15:38:35.772Z,25.45
2023-03-21T15:39:45.224Z,23.90
2023-03-21T15:41:15.913Z,26.47
2023-03-21T15:45:21.656Z,26.80
2023-03-21T15:46:44.587Z,29.16
2023-03-21T15:48:10.902Z,29.40
2023-03-21T15:49:38.207Z,30.65
2023-03-21T15:52:17.572Z,26.17
2023-03-21T15:53:26.587Z,27.30
2023-03-21T15:54:49.564Z,26.40
2023-03-21T15:56:01.225Z,26.97
2023-03-21T15:57:33.485Z,28.22
2023-03-21T15:58:45.041Z,29.15
2023-03-21T15:59:57.314Z,29.67
2023-03-21T16:01:11.056Z,27.18
2023-03-21T16:02:23.841Z,31.25
2023-03-21T16:05:04.254Z,32.10
2023-03-21T16:06:21.410Z,40.45
2023-03-21T16:07:34.340Z,35.46
2023-03-21T16:08:53.859Z,34.20
2023-03-21T16:10:04.370Z,35.40
2023-03-21T16:11:28.805Z,33.53
2023-03-21T16:13:53.562Z,38.90
2023-03-21T16:17:41.136Z,33.70
2023-03-21T16:18:53.290Z,35.73
2023-03-21T16:20:02.355Z,42.07
2023-03-21T16:21:16.603Z,36.43
2023-03-21T16:22:26.239Z,39.32
2023-03-21T16:23:35.262Z,32.93
2023-03-21T16:24:44.443Z,34.35
2023-03-21T16:25:56.856Z,31.00
2023-03-21T16:28:25.754Z,31.62
2023-03-21T16:29:34.426Z,30.82
2023-03-21T16:30:44.560Z,30.88
2023-03-21T16:31:53.606Z,30.70
2023-03-21T16:33:02.912Z,31.93
2023-03-21T16:34:12.427Z,37.40
2023-03-21T16:35:23.484Z,35.75
2023-03-21T16:36:39.166Z,46.12
2023-03-21T16:37:47.886Z,31.20
2023-03-21T16:39:37.471Z,30.73
2023-03-21T16:42:01.351Z,33.03
2023-03-21T16:43:11.368Z,33.47
2023-03-21T16:45:37.841Z,32.00
2023-03-21T16:48:02.784Z,29.65
2023-03-21T16:50:43.512Z,30.92
2023-03-21T16:53:09.588Z,28.70
2023-03-21T16:55:35.916Z,30.67
2023-03-21T16:58:04.634Z,32.10
2023-03-21T17:01:44.886Z,30.58
2023-03-21T17:04:12.660Z,31.05
2023-03-21T17:07:47.589Z,30.23
2023-03-21T17:08:58.505Z,31.78
2023-03-21T17:11:37.356Z,29.83
2023-03-21T17:14:02.558Z,31.00
2023-03-21T17:15:13.136Z,31.28
2023-03-21T17:17:41.916Z,30.82
2023-03-21T17:21:32.334Z,45.87
2023-03-21T17:23:56.612Z,30.95
2023-03-21T17:27:41.848Z,30.08
2023-03-21T17:28:53.585Z,29.98
2023-03-21T17:31:20.457Z,29.45
2023-03-21T17:33:45.809Z,29.50
2023-03-21T17:37:31.412Z,30.27
2023-03-21T17:38:42.324Z,30.50
2023-03-21T17:41:11.139Z,29.25
2023-03-21T17:42:20.812Z,31.95
2023-03-21T17:44:46.425Z,35.82
2023-03-21T17:47:12.203Z,38.88
2023-03-21T17:49:37.605Z,36.57
2023-03-21T17:52:02.670Z,31.78
2023-03-21T17:54:26.319Z,88.40
2023-03-21T17:56:52.242Z,40.40
2023-03-21T17:58:01.870Z,34.20
2023-03-21T17:59:14.358Z,34.18
2023-03-21T18:01:42.388Z,29.65
2023-03-21T18:04:26.437Z,25.15
2023-03-21T18:06:51.796Z,23.62
2023-03-21T18:08:16.215Z,23.95
2023-03-21T18:11:41.608Z,64.40
2023-03-21T18:14:17.262Z,145.40
2023-03-21T18:16:35.709Z,37.58
2023-03-21T18:19:00.632Z,34.12
2023-03-21T18:21:32.880Z,32.03
2023-03-21T18:23:57.104Z,30.58
2023-03-21T18:26:24.437Z,26.95
2023-03-21T18:27:35.976Z,26.33
2023-03-21T18:29:09.257Z,25.38
2023-03-21T18:32:27.064Z,25.85
2023-03-21T18:34:54.598Z,25.82
2023-03-21T18:37:20.839Z,27.32
2023-03-21T18:39:48.091Z,27.37
2023-03-21T18:42:19.050Z,28.73
2023-03-21T18:44:42.948Z,30.48
2023-03-21T18:45:52.069Z,30.85
2023-03-21T18:47:02.207Z,30.93
2023-03-21T18:51:56.505Z,28.40
2023-03-21T18:54:24.100Z,25.40
2023-03-21T18:59:27.712Z,26.15
2023-03-21T19:00:38.647Z,26.88
2023-03-21T19:01:49.889Z,27.80
2023-03-21T19:04:29.102Z,33.13
2023-03-21T19:05:31.237Z,38.15
2023-03-21T19:06:41.610Z,43.27
2023-03-21T19:09:08.107Z,38.30
2023-03-21T19:11:39.564Z,32.40
2023-03-21T19:15:27.172Z,25.72
2023-03-21T19:20:22.217Z,27.85
2023-03-21T19:22:47.362Z,36.38
2023-03-21T19:24:25.078Z,38.95
2023-03-21T19:26:46.923Z,37.12
2023-03-21T19:29:14.887Z,35.47
2023-03-21T19:31:39.514Z,32.55
2023-03-21T19:32:49.260Z,31.35
2023-03-21T19:33:58.568Z,31.87
2023-03-21T19:36:26.340Z,27.45
2023-03-21T19:38:53.446Z,24.63
2023-03-21T19:42:31.162Z,30.88
2023-03-21T19:44:56.052Z,50.72
2023-03-21T19:46:06.233Z,37.48
2023-03-21T19:48:32.948Z,29.20
2023-03-21T19:51:26.203Z,23.57
2023-03-21T19:53:32.812Z,27.45
2023-03-21T19:55:56.304Z,40.40
2023-03-21T19:58:22.788Z,42.75
2023-03-21T20:02:11.720Z,27.52
2023-03-21T20:04:29.732Z,25.20
2023-03-21T20:06:59.492Z,26.90
2023-03-21T20:09:49.537Z,24.53
2023-03-21T20:10:36.107Z,24.42
2023-03-21T20:11:45.771Z,23.53
2023-03-21T20:14:11.834Z,23.75
2023-03-21T20:16:37.712Z,23.03
2023-03-21T20:19:24.073Z,22.60
2023-03-21T20:20:33.318Z,23.37
2023-03-21T20:21:49.674Z,23.52
2023-03-21T20:23:06.817Z,22.62
2023-03-21T20:25:23.227Z,23.95
2023-03-21T20:28:02.873Z,23.33
2023-03-21T20:30:19.166Z,22.13
2023-03-21T20:32:46.090Z,21.62
2023-03-21T20:35:21.288Z,23.13
2023-03-21T20:37:41.615Z,22.75
2023-03-21T20:38:52.114Z,23.35
2023-03-21T20:41:18.384Z,24.85
2023-03-21T20:42:27.809Z,26.20
2023-03-21T20:44:58.777Z,24.90
2023-03-21T20:47:24.308Z,25.28
2023-03-21T20:48:35.946Z,25.07
2023-03-21T20:51:39.257Z,26.03
2023-03-21T20:53:32.723Z,80.98
2023-03-21T20:55:59.947Z,26.80
2023-03-21T20:57:09.728Z,26.32
2023-03-21T20:58:37.124Z,25.77
2023-03-21T20:59:31.721Z,24.23
2023-03-21T21:00:43.530Z,23.62
2023-03-21T21:03:09.512Z,22.90
2023-03-21T21:05:36.920Z,24.20
2023-03-21T21:06:48.478Z,25.52
2023-03-21T21:07:59.552Z,24.90
2023-03-21T21:10:26.243Z,27.78
2023-03-21T21:12:50.675Z,26.33
2023-03-21T21:15:17.927Z,29.80
2023-03-21T21:18:04.860Z,29.08
2023-03-21T21:20:16.172Z,24.55
2023-03-21T21:22:45.237Z,23.72
2023-03-21T21:25:08.305Z,23.92
2023-03-21T21:26:20.242Z,24.98
2023-03-21T21:28:46.296Z,32.37
2023-03-21T21:31:17.125Z,39.42
2023-03-21T21:33:41.892Z,46.10
2023-03-21T21:36:14.376Z,35.63
2023-03-21T21:37:23.446Z,34.35